Time;durP1;ratioP1;P1;durP2;ratioP2;P2;SDS_P1;SDS_P2;PMS_P1;PMS_P2;Temp;Humidity;BMP_temperature;BMP_pressure;BME280_temperature;BME280_humidity;BME280_pressure;Samples;Min_cycle;Max_cycle;Signal;HPM_P1;HPM_P2
2022/05/08 00:01:45;;;;;;;4.85;2.13;;;;;;;13.28;68.70;102814.63;5017069;28;96782;-33
2022/05/08 00:04:10;;;;;;;4.45;1.73;;;;;;;13.25;68.09;102818.34;5016141;28;110778;-33
2022/05/08 00:06:35;;;;;;;3.03;2.05;;;;;;;13.16;68.98;102821.44;5016822;28;99254;-33
2022/05/08 00:09:01;;;;;;;3.90;2.00;;;;;;;13.15;68.75;102830.53;5015958;28;116216;-33
2022/05/08 00:11:26;;;;;;;4.18;1.80;;;;;;;13.18;68.63;102812.25;5016248;28;96996;-33
2022/05/08 00:13:52;;;;;;;8.68;1.85;;;;;;;13.20;67.72;102816.75;5015826;28;97979;-33
2022/05/08 00:16:17;;;;;;;5.82;2.47;;;;;;;13.13;68.54;102822.44;5016207;28;98903;-33
2022/05/08 00:18:42;;;;;;;3.40;2.00;;;;;;;13.12;68.89;102806.19;5015929;28;117101;-33
2022/05/08 00:21:08;;;;;;;6.10;2.20;;;;;;;13.17;68.15;102813.19;5017018;28;96734;-33
2022/05/08 00:23:33;;;;;;;3.67;1.77;;;;;;;13.14;68.01;102813.31;5016219;28;99490;-33
2022/05/08 00:25:58;;;;;;;4.82;1.88;;;;;;;13.08;68.13;102815.41;5016453;28;97303;-33
2022/05/08 00:28:24;;;;;;;3.80;1.98;;;;;;;12.96;68.70;102816.78;5016637;28;96545;-33
2022/05/08 00:30:49;;;;;;;2.92;1.65;;;;;;;12.95;68.63;102809.59;5017287;28;96508;-33
2022/05/08 00:33:15;;;;;;;3.30;1.38;;;;;;;12.97;68.26;102821.28;5015988;28;99331;-33
2022/05/08 00:35:40;;;;;;;6.63;1.85;;;;;;;12.84;68.75;102814.56;5016227;28;97783;-33
2022/05/08 00:38:05;;;;;;;7.03;2.22;;;;;;;12.75;68.14;102816.69;5015378;28;96544;-34
2022/05/08 00:40:35;;;;;;;3.75;1.70;;;;;;;12.79;68.20;102822.00;4997860;28;106013;-33
2022/05/08 00:43:32;;;;;;;5.18;1.73;;;;;;;12.84;68.02;102825.44;5015809;28;99002;-33
2022/05/08 00:46:04;;;;;;;4.00;1.73;;;;;;;12.72;67.94;102813.19;4997820;28;101161;-33
2022/05/08 00:48:30;;;;;;;4.57;1.58;;;;;;;12.69;68.20;102819.66;5016326;28;96554;-33
2022/05/08 00:50:56;;;;;;;2.30;1.40;;;;;;;12.59;68.15;102809.19;4998275;28;96815;-33
2022/05/08 00:53:24;;;;;;;4.20;1.60;;;;;;;12.58;68.16;102819.16;5016088;28;97953;-33
2022/05/08 00:55:49;;;;;;;3.22;1.60;;;;;;;12.59;68.42;102815.53;5015999;28;101403;-33
2022/05/08 00:58:15;;;;;;;3.30;1.50;;;;;;;12.65;67.60;102817.97;5015263;28;108962;-34
2022/05/08 01:00:41;;;;;;;4.15;1.48;;;;;;;12.58;67.54;102812.84;5016039;28;96834;-33
2022/05/08 01:03:06;;;;;;;5.70;1.77;;;;;;;12.67;67.86;102809.78;5015241;28;104728;-33
2022/05/08 01:05:32;;;;;;;3.15;1.67;;;;;;;12.73;67.69;102818.59;5015929;28;97242;-33
2022/05/08 01:07:57;;;;;;;4.80;1.80;;;;;;;12.67;67.91;102818.81;5015904;28;96523;-33
2022/05/08 01:10:22;;;;;;;6.35;1.58;;;;;;;12.57;67.63;102822.84;5015188;28;96905;-33
2022/05/08 01:12:48;;;;;;;6.15;2.05;;;;;;;12.45;67.27;102813.31;5015599;28;97419;-33
2022/05/08 01:15:15;;;;;;;5.18;1.92;;;;;;;12.43;68.10;102809.78;5015420;28;97413;-33
2022/05/08 01:17:41;;;;;;;4.97;1.38;;;;;;;12.49;68.25;102811.38;5014528;28;97193;-33
2022/05/08 01:20:06;;;;;;;3.95;1.45;;;;;;;12.42;67.51;102802.56;5016367;28;96806;-33
2022/05/08 01:22:32;;;;;;;6.15;1.67;;;;;;;12.45;67.65;102817.88;5015629;28;97962;-33
2022/05/08 01:25:00;;;;;;;4.43;1.58;;;;;;;12.40;67.80;102822.59;5015585;28;97828;-33
2022/05/08 01:27:25;;;;;;;5.63;1.67;;;;;;;12.32;68.12;102812.91;4996851;28;96699;-33
2022/05/08 01:29:50;;;;;;;5.43;1.73;;;;;;;12.32;68.39;102820.16;5015737;28;96785;-33
2022/05/08 01:32:16;;;;;;;2.53;1.42;;;;;;;12.28;67.88;102804.94;5014466;28;126600;-33
2022/05/08 01:34:41;;;;;;;4.82;2.17;;;;;;;12.36;67.89;102812.78;5014193;28;126413;-33
2022/05/08 01:37:06;;;;;;;3.85;1.73;;;;;;;12.32;68.19;102812.91;5014499;28;118249;-33
2022/05/08 01:39:31;;;;;;;4.22;1.42;;;;;;;12.41;67.76;102821.66;5014513;28;116954;-33
2022/05/08 01:41:57;;;;;;;5.68;1.40;;;;;;;12.27;67.90;102808.56;5014057;28;126847;-33
2022/05/08 01:44:24;;;;;;;4.18;1.70;;;;;;;12.28;68.69;102816.69;5015371;28;99227;-33
2022/05/08 01:48:21;;;;;;;5.88;1.63;;;;;;;12.28;68.55;102813.97;5014090;28;96557;-33
2022/05/08 01:49:34;;;;;;;7.57;1.90;;;;;;;12.33;68.09;102828.25;5014113;28;96690;-33
2022/05/08 01:52:00;;;;;;;4.22;1.65;;;;;;;12.30;68.12;102814.78;5013863;28;120518;-33
2022/05/08 01:54:25;;;;;;;6.18;1.52;;;;;;;12.40;68.21;102817.16;5014634;28;105616;-33
2022/05/08 01:56:50;;;;;;;3.28;1.65;;;;;;;12.38;67.98;102816.34;5015042;28;96555;-33
2022/05/08 01:59:16;;;;;;;8.68;1.60;;;;;;;12.30;67.67;102820.22;5015108;28;96869;-33
2022/05/08 02:01:43;;;;;;;6.18;1.85;;;;;;;12.31;67.56;102821.09;5013526;28;98396;-33
2022/05/08 02:04:15;;;;;;;3.17;1.65;;;;;;;12.33;67.98;102833.69;4996642;28;101527;-33
2022/05/08 02:06:40;;;;;;;3.42;1.52;;;;;;;12.29;67.52;102829.31;5014944;28;96625;-33
2022/05/08 02:09:06;;;;;;;2.95;1.67;;;;;;;12.13;68.16;102814.50;5014953;28;96780;-33
2022/05/08 02:11:31;;;;;;;3.67;1.35;;;;;;;12.05;68.40;102835.63;5013546;28;123117;-33
2022/05/08 02:13:56;;;;;;;4.25;1.60;;;;;;;12.03;68.60;102830.25;5014474;28;97889;-33
2022/05/08 02:16:22;;;;;;;2.95;1.70;;;;;;;12.03;68.34;102829.38;5014636;28;96679;-33
2022/05/08 02:18:47;;;;;;;4.20;1.80;;;;;;;12.08;67.48;102832.81;5014527;28;103881;-33
2022/05/08 02:21:12;;;;;;;5.68;1.52;;;;;;;12.00;68.97;102824.94;5013592;28;126995;-33
2022/05/08 02:23:37;;;;;;;3.88;1.73;;;;;;;12.05;68.26;102846.50;5013575;28;126490;-33
2022/05/08 02:26:03;;;;;;;4.63;1.60;;;;;;;11.96;67.93;102831.41;5014734;28;96541;-33
2022/05/08 02:28:28;;;;;;;3.88;2.13;;;;;;;11.88;68.16;102841.66;5014847;28;96788;-33
2022/05/08 02:30:53;;;;;;;5.95;1.95;;;;;;;11.78;69.08;102854.66;5014599;28;97337;-33
2022/05/08 02:33:19;;;;;;;4.78;1.85;;;;;;;11.65;68.65;102831.56;5013954;28;119683;-33
2022/05/08 02:35:44;;;;;;;5.95;2.08;;;;;;;11.55;68.80;102840.97;5014449;28;96487;-33
2022/05/08 02:38:10;;;;;;;3.65;1.63;;;;;;;11.54;69.85;102847.34;5014503;28;96835;-33
2022/05/08 02:40:35;;;;;;;5.95;1.90;;;;;;;11.55;68.69;102850.00;5014052;28;97944;-33
2022/05/08 02:43:01;;;;;;;4.55;1.88;;;;;;;11.46;68.70;102851.22;5014393;28;97758;-33
2022/05/08 02:45:26;;;;;;;4.88;1.50;;;;;;;11.36;68.45;102855.13;5014745;28;96480;-33
2022/05/08 02:47:51;;;;;;;2.55;1.13;;;;;;;11.25;68.83;102844.66;5014385;28;96616;-33
2022/05/08 02:50:18;;;;;;;3.42;1.33;;;;;;;11.27;68.10;102864.47;5014409;28;97990;-33
2022/05/08 02:52:43;;;;;;;1.98;0.98;;;;;;;11.19;67.92;102838.53;5013803;28;99254;-33
2022/05/08 03:00:40;;;;;;;3.28;0.90;;;;;;;11.17;67.52;102867.53;5015559;28;96525;-33
2022/05/08 03:03:07;;;;;;;2.28;0.80;;;;;;;11.13;67.20;102861.31;4999560;28;100910;-33
2022/05/08 03:05:33;;;;;;;1.20;0.73;;;;;;;11.15;67.70;102872.09;4999179;28;96680;-33
2022/05/08 03:07:59;;;;;;;2.95;0.93;;;;;;;11.19;67.04;102874.66;5016576;28;96916;-33
2022/05/08 03:10:24;;;;;;;4.60;0.95;;;;;;;11.07;67.19;102868.75;5016763;28;97752;-33
2022/05/08 03:12:49;;;;;;;4.50;1.00;;;;;;;11.10;67.08;102876.78;5015371;28;122488;-33
2022/05/08 03:15:16;;;;;;;1.27;0.55;;;;;;;10.98;67.33;102861.78;5016517;28;116819;-33
2022/05/08 03:17:41;;;;;;;4.80;0.77;;;;;;;10.96;67.18;102866.34;5017736;28;96794;-33
2022/05/08 03:20:07;;;;;;;0.68;0.55;;;;;;;10.97;67.11;102870.88;5016569;28;117932;-33
2022/05/08 03:22:32;;;;;;;3.97;0.77;;;;;;;10.99;67.07;102879.84;4999632;28;101402;-33
2022/05/08 03:24:58;;;;;;;3.22;0.90;;;;;;;10.89;67.07;102868.34;5015413;28;119368;-33
2022/05/08 03:27:24;;;;;;;1.85;0.82;;;;;;;10.96;67.03;102879.91;5016800;28;112337;-33
2022/05/08 03:29:50;;;;;;;2.97;0.68;;;;;;;10.92;67.13;102875.53;5015896;28;124649;-33
2022/05/08 03:32:15;;;;;;;1.88;0.73;;;;;;;10.83;67.30;102879.41;5017025;28;99511;-33
2022/05/08 03:34:40;;;;;;;2.20;1.00;;;;;;;10.85;67.33;102882.97;5016313;28;117973;-33
2022/05/08 03:37:06;;;;;;;1.27;0.60;;;;;;;10.73;67.20;102861.66;5016537;28;112128;-33
2022/05/08 03:39:31;;;;;;;6.05;1.13;;;;;;;10.73;67.06;102873.38;5017255;28;97932;-33
2022/05/08 03:41:56;;;;;;;1.95;0.88;;;;;;;10.71;67.40;102888.78;5015804;28;127886;-33
2022/05/08 03:44:22;;;;;;;5.57;0.73;;;;;;;10.72;67.07;102871.59;5016513;28;113163;-33
2022/05/08 03:46:47;;;;;;;6.72;0.90;;;;;;;10.74;67.29;102879.69;5017120;28;117206;-33
2022/05/08 03:49:12;;;;;;;1.52;0.70;;;;;;;10.65;67.22;102872.69;5017042;28;97888;-33
2022/05/08 03:51:43;;;;;;;0.93;0.52;;;;;;;10.67;67.34;102888.94;5016032;28;126866;-33
2022/05/08 03:54:09;;;;;;;6.33;1.07;;;;;;;10.59;67.03;102878.31;5016768;28;96710;-33
2022/05/08 03:56:35;;;;;;;3.90;0.80;;;;;;;10.58;67.44;102879.22;5016941;28;96840;-33
2022/05/08 03:59:00;;;;;;;3.58;0.98;;;;;;;10.59;67.26;102892.75;4998703;28;101394;-33
2022/05/08 04:01:26;;;;;;;1.52;0.55;;;;;;;10.60;66.94;102896.34;5016522;28;111988;-33
2022/05/08 04:03:51;;;;;;;2.45;1.08;;;;;;;10.60;67.03;102890.91;5017062;28;96543;-33
2022/05/08 04:06:17;;;;;;;2.08;0.75;;;;;;;10.51;67.48;102883.97;5016902;28;96579;-33
2022/05/08 04:08:42;;;;;;;2.90;1.10;;;;;;;10.52;67.15;102892.97;5015863;28;121930;-33
2022/05/08 04:11:07;;;;;;;3.33;0.65;;;;;;;10.44;67.54;102885.06;5016391;28;97846;-33
2022/05/08 04:13:32;;;;;;;4.38;0.90;;;;;;;10.45;67.39;102888.66;5015398;28;101075;-33
2022/05/08 04:16:16;;;;;;;1.08;0.30;;;;;;;10.29;67.72;102880.06;5016593;28;96857;-33
2022/05/08 04:18:41;;;;;;;4.55;0.52;;;;;;;10.27;67.82;102892.72;5016218;28;97990;-33
2022/05/08 04:21:07;;;;;;;3.38;0.52;;;;;;;10.28;67.52;102897.22;5016423;28;97808;-33
2022/05/08 04:26:16;;;;;;;4.90;0.95;;;;;;;10.27;67.14;102901.72;5016568;28;96467;-33
2022/05/08 04:28:41;;;;;;;3.58;1.10;;;;;;;10.23;67.98;102901.88;5016314;28;97937;-33
2022/05/08 04:31:07;;;;;;;0.90;0.30;;;;;;;10.19;67.63;102910.06;5016454;28;98239;-33
2022/05/08 04:33:32;;;;;;;4.68;0.95;;;;;;;10.13;68.04;102904.84;5016515;28;96524;-33
2022/05/08 04:35:57;;;;;;;3.75;0.80;;;;;;;10.15;67.43;102910.19;5016789;28;96826;-34
2022/05/08 04:38:22;;;;;;;3.28;1.02;;;;;;;10.15;67.68;102902.97;5015123;28;127081;-33
2022/05/08 04:40:48;;;;;;;3.35;0.55;;;;;;;10.11;67.66;102903.09;5016218;28;97844;-33
2022/05/08 04:43:13;;;;;;;0.25;0.20;;;;;;;10.15;67.78;102923.72;5015762;28;96796;-33
2022/05/08 04:45:38;;;;;;;1.05;0.45;;;;;;;10.11;67.95;102919.34;4997450;28;113669;-33
2022/05/08 04:48:04;;;;;;;1.85;0.73;;;;;;;10.14;67.69;102914.72;5016185;28;97863;-33
2022/05/08 04:50:30;;;;;;;6.82;0.82;;;;;;;10.20;67.66;102914.56;5015769;28;97419;-33
2022/05/08 04:52:55;;;;;;;3.00;0.82;;;;;;;10.15;67.39;102912.91;5016386;28;96427;-33
2022/05/08 04:55:20;;;;;;;3.13;0.85;;;;;;;10.21;67.12;102924.47;5016595;28;96840;-33
2022/05/08 04:57:45;;;;;;;7.55;1.10;;;;;;;10.19;67.63;102920.91;5015558;28;104620;-33
2022/05/08 05:00:11;;;;;;;2.15;0.63;;;;;;;10.24;67.33;102933.44;5015193;28;126449;-33
2022/05/08 05:02:37;;;;;;;3.55;0.93;;;;;;;10.17;67.38;102930.00;5016061;28;96604;-33
2022/05/08 05:05:02;;;;;;;3.13;1.48;;;;;;;10.17;67.89;102940.81;5015884;28;96939;-33
2022/05/08 05:07:27;;;;;;;3.30;0.75;;;;;;;10.15;67.65;102930.06;5015238;28;98518;-33
2022/05/08 05:09:53;;;;;;;6.15;0.80;;;;;;;10.18;67.13;102934.50;5015565;28;97718;-33
2022/05/08 05:12:18;;;;;;;1.70;0.52;;;;;;;10.08;67.34;102925.72;5015753;28;96817;-33
2022/05/08 05:14:44;;;;;;;6.97;0.80;;;;;;;10.16;67.20;102941.78;5015995;28;96783;-33
2022/05/08 05:17:09;;;;;;;1.15;0.80;;;;;;;10.15;67.56;102927.34;5014569;28;127116;-33
2022/05/08 05:19:34;;;;;;;6.82;0.88;;;;;;;10.15;67.37;102940.88;5014589;28;121887;-33
2022/05/08 05:21:59;;;;;;;0.60;0.50;;;;;;;10.25;67.23;102946.94;5015572;28;96628;-33
2022/05/08 05:24:25;;;;;;;2.40;0.90;;;;;;;10.26;67.22;102950.53;5015097;28;114059;-33
2022/05/08 05:26:52;;;;;;;5.72;1.13;;;;;;;10.25;66.98;102952.38;5015442;28;97891;-33
2022/05/08 05:29:17;;;;;;;1.83;0.75;;;;;;;10.26;66.98;102940.59;5015187;28;97431;-33
2022/05/08 05:31:43;;;;;;;6.95;1.05;;;;;;;10.28;66.85;102946.91;5015515;28;96594;-33
2022/05/08 05:34:08;;;;;;;1.80;0.65;;;;;;;10.37;66.84;102959.31;5015287;28;105320;-33
2022/05/08 05:36:33;;;;;;;1.52;0.75;;;;;;;10.30;66.41;102953.16;5015002;28;99323;-33
2022/05/08 05:38:59;;;;;;;1.40;0.70;;;;;;;10.41;66.50;102952.84;5014337;28;125470;-33
2022/05/08 05:41:24;;;;;;;0.63;0.43;;;;;;;10.47;66.51;102968.97;5015423;28;96691;-33
2022/05/08 05:43:49;;;;;;;1.83;0.60;;;;;;;10.58;66.24;102968.66;5014644;28;106280;-33
2022/05/08 05:48:58;;;;;;;6.72;1.38;;;;;;;10.72;65.72;102955.59;5015736;28;97113;-33
2022/05/08 05:51:24;;;;;;;8.35;0.98;;;;;;;10.73;65.38;102961.94;5014416;28;111108;-33
2022/05/08 05:53:49;;;;;;;9.70;1.38;;;;;;;10.72;65.49;102971.88;5015171;28;96883;-33
2022/05/08 05:56:14;;;;;;;1.88;0.60;;;;;;;10.73;65.28;102970.97;5012736;28;101484;-33
2022/05/08 05:58:40;;;;;;;3.53;0.95;;;;;;;10.81;65.20;102968.03;4996781;28;101357;-33
2022/05/08 06:01:05;;;;;;;4.47;0.88;;;;;;;10.89;65.20;102965.09;5015227;28;96500;-33
2022/05/08 06:03:32;;;;;;;2.05;0.88;;;;;;;11.02;64.69;102970.13;5014692;28;106284;-33
2022/05/08 06:05:57;;;;;;;1.20;0.57;;;;;;;11.05;64.61;102970.03;5014731;28;97965;-33
2022/05/08 06:08:23;;;;;;;2.67;0.85;;;;;;;11.14;64.52;102968.88;5014806;28;101153;-33
2022/05/08 06:10:48;;;;;;;5.82;0.80;;;;;;;11.26;64.10;102975.75;5013558;28;118659;-33
2022/05/08 06:13:13;;;;;;;3.13;0.82;;;;;;;11.21;64.11;102970.47;5014495;28;116746;-33
2022/05/08 06:15:38;;;;;;;4.97;0.90;;;;;;;11.30;63.96;102988.28;5014273;28;97998;-33
2022/05/08 06:18:31;;;;;;;7.45;1.02;;;;;;;11.44;63.69;102983.34;5013877;28;113781;-33
2022/05/08 06:20:57;;;;;;;3.08;0.70;;;;;;;11.44;63.51;102993.28;5014765;28;96547;-33
2022/05/08 06:23:22;;;;;;;0.80;0.45;;;;;;;11.51;63.27;102985.84;5014114;28;111164;-33
2022/05/08 06:25:47;;;;;;;1.80;0.80;;;;;;;11.52;62.76;102987.63;5013934;28;120084;-33
2022/05/08 06:28:19;;;;;;;4.45;1.10;;;;;;;11.63;62.95;102980.94;5013650;28;126433;-33
2022/05/08 06:30:44;;;;;;;6.35;1.20;;;;;;;11.80;62.86;102998.53;5014863;28;96601;-33
2022/05/08 06:33:09;;;;;;;2.03;0.88;;;;;;;11.76;62.29;103000.44;5014675;28;96875;-33
2022/05/08 06:35:38;;;;;;;3.53;0.70;;;;;;;11.85;62.05;102993.81;5012737;28;126852;-33
2022/05/08 06:38:03;;;;;;;6.50;1.15;;;;;;;11.99;62.25;103004.25;4996521;28;101310;-33
2022/05/08 06:40:28;;;;;;;1.92;0.50;;;;;;;12.10;61.44;103007.50;5014126;28;102891;-33
2022/05/08 06:43:00;;;;;;;6.38;1.23;;;;;;;12.18;61.15;103008.16;5014315;28;100802;-33
2022/05/08 06:45:25;;;;;;;4.07;0.52;;;;;;;12.22;61.09;102996.22;5013929;28;97875;-33
2022/05/08 06:47:51;;;;;;;3.05;0.70;;;;;;;12.43;60.39;103005.47;5013459;28;126406;-33
2022/05/08 06:50:19;;;;;;;2.75;1.10;;;;;;;12.47;60.11;103011.69;5014666;28;97251;-33
2022/05/08 06:52:45;;;;;;;2.78;0.88;;;;;;;12.50;60.22;103000.72;5013236;28;96824;-33
2022/05/08 06:55:11;;;;;;;4.95;0.77;;;;;;;12.66;60.14;103007.38;5014271;28;97888;-33
2022/05/08 06:57:36;;;;;;;3.45;0.90;;;;;;;12.72;59.63;102999.00;5013887;28;99486;-33
2022/05/08 07:02:47;;;;;;;5.35;1.05;;;;;;;12.74;59.10;103013.44;5015172;28;96474;-33
2022/05/08 07:05:13;;;;;;;2.47;0.77;;;;;;;12.75;58.16;102998.91;5013026;28;97850;-33
2022/05/08 07:07:38;;;;;;;7.28;0.70;;;;;;;12.85;58.37;103007.63;4996009;28;100940;-33
2022/05/08 07:10:03;;;;;;;3.83;0.95;;;;;;;13.03;58.44;103014.19;5013630;28;96421;-33
2022/05/08 07:12:29;;;;;;;4.25;0.77;;;;;;;13.11;58.03;103006.66;5013878;28;96934;-33
2022/05/08 07:14:54;;;;;;;2.22;0.82;;;;;;;13.19;58.04;102990.03;5012986;28;123402;-33
2022/05/08 07:17:21;;;;;;;4.00;1.42;;;;;;;13.32;57.74;103009.53;5013816;28;97765;-33
2022/05/08 07:19:49;;;;;;;1.48;0.57;;;;;;;13.54;57.50;103023.22;5014077;28;96596;-33
2022/05/08 07:22:16;;;;;;;2.22;0.75;;;;;;;13.74;57.02;103020.56;4996078;28;96961;-33
2022/05/08 07:24:41;;;;;;;6.85;0.82;;;;;;;13.89;56.15;103004.56;4995772;28;100781;-33
2022/05/08 07:27:10;;;;;;;5.78;0.80;;;;;;;13.98;56.66;103012.34;5014283;28;100445;-33
2022/05/08 07:29:36;;;;;;;1.92;0.70;;;;;;;14.09;55.87;103025.56;5012959;28;97692;-33
2022/05/08 07:32:02;;;;;;;4.53;0.93;;;;;;;14.11;55.75;103024.53;5012500;28;96892;-33
2022/05/08 07:37:11;;;;;;;3.50;1.17;;;;;;;14.13;55.79;103029.91;5013749;28;96677;-33
2022/05/08 07:39:36;;;;;;;2.85;0.60;;;;;;;14.18;55.70;103019.69;5013296;28;116934;-33
2022/05/08 07:42:02;;;;;;;1.92;0.90;;;;;;;14.15;55.59;103020.72;5013738;28;97436;-33
2022/05/08 07:44:27;;;;;;;3.90;1.00;;;;;;;14.12;55.19;103019.97;5013275;28;98906;-33
2022/05/08 07:46:52;;;;;;;2.55;1.10;;;;;;;14.14;54.99;103018.94;5013543;28;105320;-33
2022/05/08 07:49:17;;;;;;;6.43;0.88;;;;;;;14.18;55.69;103028.78;5017156;28;96616;-33
2022/05/08 07:51:43;;;;;;;2.75;0.88;;;;;;;14.32;55.33;103028.16;5016530;28;116245;-33
2022/05/08 07:54:08;;;;;;;3.53;0.75;;;;;;;14.34;55.02;103025.38;5016423;28;113569;-33
2022/05/08 07:56:34;;;;;;;3.05;1.00;;;;;;;14.37;54.82;103020.72;5016061;28;124422;-33
2022/05/08 07:58:59;;;;;;;1.52;0.68;;;;;;;14.44;54.68;103024.94;5016707;28;96496;-33
2022/05/08 08:01:25;;;;;;;1.77;0.77;;;;;;;14.56;54.01;103030.84;5015547;28;96962;-33
2022/05/08 08:03:59;;;;;;;3.63;0.90;;;;;;;14.80;53.48;103037.97;5014374;28;124819;-33
2022/05/08 08:06:25;;;;;;;2.25;0.95;;;;;;;14.98;53.56;103043.53;5015738;28;128493;-33
2022/05/08 08:08:50;;;;;;;2.28;1.13;;;;;;;14.98;53.38;103036.25;5017136;28;96600;-33
2022/05/08 08:11:15;;;;;;;4.30;0.98;;;;;;;15.04;53.35;103035.97;5016187;28;96773;-33
2022/05/08 08:13:40;;;;;;;6.88;0.85;;;;;;;15.15;52.71;103024.56;5015581;28;116199;-33
2022/05/08 08:16:07;;;;;;;2.25;0.93;;;;;;;15.22;52.59;103028.78;5016740;28;106333;-33
2022/05/08 08:18:43;;;;;;;4.10;0.75;;;;;;;15.40;50.82;103028.91;4998752;28;96684;-33
2022/05/08 08:21:13;;;;;;;1.95;0.88;;;;;;;15.55;51.26;103032.75;5016760;28;96781;-33
2022/05/08 08:23:40;;;;;;;2.95;0.63;;;;;;;15.65;51.79;103040.41;5014495;28;100633;-33
2022/05/08 08:26:07;;;;;;;4.20;0.93;;;;;;;15.76;51.37;103039.06;4998108;28;101059;-34
2022/05/08 08:28:32;;;;;;;2.75;0.80;;;;;;;15.78;51.43;103023.44;5015364;28;96570;-33
2022/05/08 08:30:57;;;;;;;2.90;0.98;;;;;;;16.00;51.03;103024.19;5014783;28;107728;-33
2022/05/08 08:33:23;;;;;;;2.80;0.82;;;;;;;16.16;49.24;103039.81;5015419;28;116868;-33
2022/05/08 08:35:49;;;;;;;2.08;0.95;;;;;;;16.15;50.76;103028.00;5016138;28;97818;-33
2022/05/08 08:38:14;;;;;;;3.67;0.85;;;;;;;16.08;50.86;103032.88;5016724;28;96493;-33
2022/05/08 08:40:41;;;;;;;7.43;1.25;;;;;;;16.11;50.95;103029.09;5016550;28;96843;-33
2022/05/08 08:43:11;;;;;;;4.53;1.38;;;;;;;16.22;50.59;103025.84;4998046;28;101106;-33
2022/05/08 08:48:29;;;;;;;5.20;0.73;;;;;;;16.61;50.24;103042.03;5016131;28;96569;-33
2022/05/08 08:50:56;;;;;;;2.33;0.60;;;;;;;16.60;48.42;103034.81;4998101;28;96995;-33
2022/05/08 08:53:23;;;;;;;9.65;1.17;;;;;;;16.49;48.43;103032.66;5014346;28;101298;-33
2022/05/08 08:55:49;;;;;;;2.10;1.00;;;;;;;16.59;49.69;103027.56;5014449;28;100715;-33
2022/05/08 08:58:16;;;;;;;2.70;0.75;;;;;;;16.66;49.36;103036.31;4997540;28;96655;-33
2022/05/08 09:00:42;;;;;;;5.75;1.23;;;;;;;16.83;48.64;103021.78;5016152;28;96833;-33
2022/05/08 09:03:08;;;;;;;3.40;1.13;;;;;;;16.80;49.24;103025.56;4997614;28;100801;-33
2022/05/08 09:05:34;;;;;;;4.70;1.40;;;;;;;16.94;48.52;103008.41;5015933;28;110937;-33
2022/05/08 09:08:00;;;;;;;2.33;0.93;;;;;;;17.13;48.43;103022.00;5015659;28;96691;-33
2022/05/08 09:10:35;;;;;;;6.82;1.10;;;;;;;17.31;47.88;103017.38;5015284;28;96819;-33
2022/05/08 09:13:07;;;;;;;5.95;1.05;;;;;;;17.49;47.20;103024.53;5014004;28;99355;-33
2022/05/08 09:15:34;;;;;;;3.05;1.08;;;;;;;17.58;47.76;103029.50;4997178;28;100867;-33
2022/05/08 09:18:10;;;;;;;4.35;1.05;;;;;;;17.59;46.86;103019.44;5015764;28;96835;-33
2022/05/08 09:20:48;;;;;;;2.88;0.93;;;;;;;17.76;46.07;103026.72;5014542;28;96831;-33
2022/05/08 09:23:20;;;;;;;7.50;1.00;;;;;;;17.66;46.75;103028.19;5015748;28;97982;-33
2022/05/08 09:25:47;;;;;;;3.45;0.98;;;;;;;17.73;45.71;103022.31;4997306;28;100696;-33
2022/05/08 09:28:14;;;;;;;5.53;0.98;;;;;;;17.80;47.17;103011.84;5015861;28;96509;-33
2022/05/08 09:31:06;;;;;;;5.57;0.95;;;;;;;17.87;45.37;103013.28;4998026;28;96929;-33
2022/05/08 09:33:45;;;;;;;4.40;0.83;;;;;;;18.02;45.44;103017.03;5013991;28;100930;-33
2022/05/08 09:36:21;;;;;;;4.32;0.75;;;;;;;18.13;46.12;103021.88;5014521;28;97266;-33
2022/05/08 09:38:51;;;;;;;6.07;1.20;;;;;;;18.12;46.21;103018.25;5013186;28;96875;-33
2022/05/08 09:41:26;;;;;;;2.92;0.77;;;;;;;17.98;43.74;103012.69;5013767;28;96982;-33
2022/05/08 09:43:54;;;;;;;1.45;0.60;;;;;;;18.08;44.98;103011.16;5014943;28;98767;-33
2022/05/08 09:46:20;;;;;;;8.63;0.88;;;;;;;18.21;44.22;103012.22;5014738;28;99224;-33
2022/05/08 09:48:46;;;;;;;1.80;0.73;;;;;;;18.19;45.51;103003.19;5014016;28;97610;-32
2022/05/08 09:51:13;;;;;;;1.48;0.80;;;;;;;18.34;45.81;103012.34;5015629;28;96812;-33
2022/05/08 09:53:40;;;;;;;3.72;1.08;;;;;;;18.65;44.04;103008.63;4997085;28;101061;-33
2022/05/08 09:56:11;;;;;;;7.43;0.85;;;;;;;18.73;43.28;103013.66;5015016;28;98874;-33
2022/05/08 09:58:39;;;;;;;6.32;0.90;;;;;;;18.99;44.67;103002.94;5015242;28;96670;-33
2022/05/08 10:01:05;;;;;;;3.58;1.08;;;;;;;19.04;44.09;103012.69;4997191;28;96904;-33
2022/05/08 10:03:31;;;;;;;3.70;1.08;;;;;;;18.98;42.80;103007.56;5014538;28;97900;-33
2022/05/08 10:05:59;;;;;;;5.57;1.02;;;;;;;18.98;42.37;103013.06;5014957;28;97815;-33
2022/05/08 10:08:28;;;;;;;2.72;0.77;;;;;;;19.16;43.48;103005.50;5013396;28;96782;-33
2022/05/08 10:14:05;;;;;;;5.78;1.27;;;;;;;19.37;42.33;102994.13;5035102;28;97167;-33
2022/05/08 10:16:50;;;;;;;2.65;0.98;;;;;;;19.23;42.53;103006.00;5016346;28;100415;-33
2022/05/08 10:19:24;;;;;;;4.03;0.80;;;;;;;19.35;42.46;103010.69;5016976;28;96513;-33
2022/05/08 10:21:55;;;;;;;4.68;0.85;;;;;;;19.36;42.09;103006.13;5035705;28;96607;-33
2022/05/08 10:24:36;;;;;;;1.93;0.70;;;;;;;19.51;40.94;103000.50;5034558;28;99406;-33
2022/05/08 10:27:16;;;;;;;1.63;0.77;;;;;;;19.36;40.25;102985.00;5016255;28;100699;-33
2022/05/08 10:29:42;;;;;;;3.00;0.57;;;;;;;19.50;42.21;102981.38;5016206;28;96713;-33
2022/05/08 10:32:10;;;;;;;3.03;1.00;;;;;;;19.56;42.33;102991.06;5034835;28;96842;-33
2022/05/08 10:34:38;;;;;;;1.95;0.80;;;;;;;19.61;41.99;102988.91;5033007;28;101132;-33
2022/05/08 10:37:10;;;;;;;8.18;1.48;;;;;;;19.70;41.21;102988.31;5034279;28;97817;-33
2022/05/08 10:39:39;;;;;;;4.82;1.20;;;;;;;19.53;42.15;102975.66;5034693;28;96647;-33
2022/05/08 10:42:05;;;;;;;1.60;0.80;;;;;;;19.66;42.00;102979.38;5033270;28;96861;-33
2022/05/08 10:44:37;;;;;;;2.72;0.73;;;;;;;19.65;40.26;102983.09;5034330;28;98130;-33
2022/05/08 10:47:32;;;;;;;4.25;0.85;;;;;;;19.91;40.90;102991.50;5016521;28;100996;-33
2022/05/08 10:49:57;;;;;;;3.75;1.08;;;;;;;19.85;41.70;102984.53;5030107;28;96852;-33
2022/05/08 10:52:22;;;;;;;6.70;1.20;;;;;;;20.03;40.64;102982.44;5034697;28;96811;-33
2022/05/08 10:54:58;;;;;;;2.03;0.88;;;;;;;20.19;40.61;102985.03;5032755;28;125873;-33
2022/05/08 10:57:31;;;;;;;2.58;0.93;;;;;;;20.25;40.81;103000.22;5015625;28;101096;-33
2022/05/08 10:59:56;;;;;;;10.48;0.95;;;;;;;20.28;40.61;102984.38;5034700;28;96431;-33
2022/05/08 11:02:45;;;;;;;1.98;0.77;;;;;;;20.25;41.26;103000.22;5034259;28;96826;-33
2022/05/08 11:05:12;;;;;;;3.50;0.73;;;;;;;20.37;39.87;102988.38;5014882;28;100551;-34
2022/05/08 11:07:40;;;;;;;5.55;1.50;;;;;;;20.32;40.16;102974.94;4998934;28;100763;-33
2022/05/08 11:10:31;;;;;;;4.07;0.63;;;;;;;20.43;39.86;102981.59;5034209;28;96562;-33
2022/05/08 11:13:02;;;;;;;3.28;0.88;;;;;;;20.43;39.95;102985.22;5034702;28;96876;-33
2022/05/08 11:15:31;;;;;;;5.17;0.90;;;;;;;20.28;40.21;102991.75;5033688;28;98182;-33
2022/05/08 11:18:16;;;;;;;5.65;1.10;;;;;;;20.21;40.11;102974.78;5032594;28;100551;-33
2022/05/08 11:20:53;;;;;;;2.47;0.93;;;;;;;20.25;39.93;102976.34;5032272;28;96581;-33
2022/05/08 11:23:26;;;;;;;4.28;0.88;;;;;;;20.45;40.53;102982.31;5019882;28;96712;-33
2022/05/08 11:25:54;;;;;;;1.70;0.57;;;;;;;20.56;40.32;102972.38;5037359;28;99316;-33
2022/05/08 11:28:23;;;;;;;2.08;0.60;;;;;;;20.56;39.26;102975.13;5019261;28;101084;-33
2022/05/08 11:30:50;;;;;;;2.40;0.90;;;;;;;20.56;39.59;102983.38;5036117;28;96604;-33
2022/05/08 11:36:06;;;;;;;1.85;0.90;;;;;;;20.56;39.46;102965.97;5037438;28;97175;-33
2022/05/08 11:38:41;;;;;;;1.25;0.70;;;;;;;20.72;39.65;102966.66;5037761;28;98423;-33
2022/05/08 11:41:19;;;;;;;0.90;0.70;;;;;;;20.61;39.31;102965.66;5036164;28;96680;-33
2022/05/08 11:43:46;;;;;;;4.65;1.20;;;;;;;20.71;39.69;102959.41;5035985;28;96842;-33
2022/05/08 11:46:15;;;;;;;3.03;0.85;;;;;;;20.71;39.97;102959.41;5034981;28;101102;-33
2022/05/08 11:48:42;;;;;;;2.42;0.90;;;;;;;20.84;38.66;102964.03;5036869;28;98080;-33